Latest Weather Observations for Hartz Mountains

IDT60801

Issued at 10:02 pm EST Thursday 28 July 2016 (issued every 30 minutes, with the page automatically refreshed every 10 minutes)

About weather observations | Map of weather stations | Latest weather observations for TAS | Other Formats
Station Details ID: 094191 Name: HARTZ MOUNTAIN (KEOGHS PIMPLE) Lat: -43.20 Lon: 146.77 Height: 831.0 m
Data from the previous 72 hours. | See also: Recent months at Hartz Mountains
Date/Time
EST
Temp
°C
App
Temp
°C
Dew
Point
°C
Rel
Hum
%
Delta-T
°C
Wind Press
QNH
hPa
Press
MSL
hPa
Rain since
9am
mm
Dir  Spd
km/h
Gust
km/h
Spd
kts
Gust
kts
28/10:00pm 2.7 -7.2 2.7 100 0.0 W 44 69 24 37 - - 3.0
28/09:36pm 2.6 -8.5 2.6 100 0.0 WNW 50 69 27 37 - - 3.0
28/09:30pm 2.6 -7.7 2.6 100 0.0 WNW 46 63 25 34 - - 3.0
28/09:00pm 3.0 -6.3 3.0 100 0.0 WNW 41 65 22 35 - - 3.0
28/08:32pm 2.9 -7.0 2.9 100 0.0 WNW 44 72 24 39 - - 3.0
28/08:30pm 2.8 -6.9 2.8 100 0.0 W 43 69 23 37 - - 3.0
28/08:00pm 2.8 -5.4 2.7 99 0.0 WNW 35 57 19 31 - - 3.0
28/07:30pm 2.8 -6.5 2.8 100 0.0 WNW 41 63 22 34 - - 3.0
28/07:00pm 2.8 -7.5 2.8 100 0.0 WNW 46 65 25 35 - - 3.0
28/06:30pm 3.0 -6.9 2.9 99 0.0 WNW 44 74 24 40 - - 2.8
28/06:00pm 2.9 -5.3 2.6 98 0.1 WNW 35 61 19 33 - - 2.8
28/05:30pm 2.8 -6.2 2.4 97 0.2 WNW 39 61 21 33 - - 2.8
28/05:12pm 2.7 -5.6 2.3 97 0.2 WNW 35 61 19 33 - - 2.8
28/05:09pm 2.8 -5.5 2.4 97 0.2 W 35 63 19 34 - - 2.8
28/05:00pm 2.7 -7.3 2.3 97 0.2 W 44 72 24 39 - - 2.8
28/04:30pm 3.0 -5.5 2.9 99 0.0 W 37 69 20 37 - - 2.8
28/04:00pm 3.1 -5.1 2.8 98 0.1 W 35 57 19 31 - - 2.8
28/03:30pm 3.2 -6.1 2.8 97 0.2 WSW 41 69 22 37 - - 2.8
28/03:00pm 3.6 -7.7 3.2 97 0.2 WSW 52 91 28 49 - - 2.8
28/02:30pm 3.7 -7.2 3.6 99 0.0 WSW 50 80 27 43 - - 2.8
28/02:00pm 3.5 -7.4 3.4 99 0.0 WSW 50 76 27 41 - - 2.8
28/01:30pm 3.9 -6.2 3.6 98 0.1 WSW 46 96 25 52 - - 2.8
28/01:00pm 3.9 -6.2 3.8 99 0.0 W 46 82 25 44 - - 2.8
28/12:30pm 4.0 -5.5 4.0 100 0.0 W 43 85 23 46 - - 2.8
28/12:00pm 3.8 -5.9 3.8 100 0.0 W 44 69 24 37 - - 2.8
28/11:30am 3.9 -6.2 3.9 100 0.0 WNW 46 95 25 51 - - 2.6
28/11:00am 3.8 -5.9 3.8 100 0.0 WNW 44 78 24 42 - - 2.6
28/10:30am 3.9 -4.8 3.9 100 0.0 WNW 39 65 21 35 - - 2.4
28/10:00am 3.8 -3.8 3.8 100 0.0 W 33 80 18 43 - - 2.0
28/09:30am 3.6 -4.1 3.6 100 0.0 W 33 67 18 36 - - 1.4
28/09:00am 3.6 -4.4 3.6 100 0.0 WNW 35 69 19 37 - - 23.4
28/08:30am 3.6 -5.6 3.6 100 0.0 WNW 41 76 22 41 - - 22.6
28/08:00am 3.4 -5.1 3.4 100 0.0 W 37 70 20 38 - - 21.2
28/07:30am 3.3 -6.5 3.3 100 0.0 WNW 44 78 24 42 - - 19.4
28/07:00am 3.4 -5.4 3.4 100 0.0 WNW 39 65 21 35 - - 18.0
28/06:46am 3.4 -7.1 3.4 100 0.0 WNW 48 76 26 41 - - 17.4
28/06:31am 3.1 -5.8 3.1 100 0.0 WNW 39 57 21 31 - - 16.8
28/06:30am 3.1 -6.2 3.1 100 0.0 WNW 41 57 22 31 - - 16.8
28/06:00am 2.8 -5.0 2.8 100 0.0 WNW 33 61 18 33 - - 15.6
28/05:30am 2.3 -7.5 2.3 100 0.0 WNW 43 61 23 33 - - 14.6
28/05:00am 2.4 -8.7 2.4 100 0.0 WNW 50 78 27 42 - - 13.8
28/04:30am 2.2 -8.2 2.2 100 0.0 WNW 46 78 25 42 - - 13.0
28/04:00am 2.3 -8.4 2.3 100 0.0 WNW 48 80 26 43 - - 12.2
28/03:30am 2.2 -7.2 2.2 100 0.0 WNW 41 65 22 35 - - 11.6
28/03:00am 2.1 -5.8 2.1 100 0.0 WNW 33 59 18 32 - - 11.0
28/02:30am 2.1 -5.3 2.0 99 0.0 W 30 54 16 29 - - 10.6
28/02:00am 2.0 -5.4 1.6 97 0.2 W 30 57 16 31 - - 9.8
28/01:52am 2.1 -5.0 1.5 96 0.2 W 28 46 15 25 - - 9.6
28/01:44am 2.3 -5.5 1.7 96 0.2 WSW 32 61 17 33 - - 9.2
28/01:42am 2.3 -5.5 1.9 97 0.2 WSW 32 61 17 33 - - 9.2
28/01:30am 2.0 -5.8 1.6 97 0.2 W 32 50 17 27 - - 9.0
28/01:00am 2.1 -5.4 1.4 95 0.3 W 30 50 16 27 - - 8.2
28/12:36am 2.2 -4.4 1.8 97 0.2 WNW 26 67 14 36 - - 7.6
28/12:30am 2.2 -3.3 1.8 97 0.2 W 20 48 11 26 - - 7.4
28/12:00am 3.0 -6.3 0.4 83 1.0 W 39 69 21 37 - - 6.8
 
Date/Time
EST
Temp
°C
App
Temp
°C
Dew
Point
°C
Rel
Hum
%
Delta-T
°C
Wind Press
QNH
hPa
Press
MSL
hPa
Rain since
9am
mm
Dir  Spd
km/h
Gust
km/h
Spd
kts
Gust
kts
27/11:30pm 2.9 -5.7 0.5 84 1.0 W 35 70 19 38 - - 6.2
27/11:22pm 3.1 -7.2 0.2 81 1.1 W 44 89 24 48 - - 6.0
27/11:20pm 2.9 -7.2 0.3 83 1.0 W 43 89 23 48 - - 5.8
27/11:18pm 2.7 -7.4 0.3 84 0.9 W 43 89 23 48 - - 5.8
27/11:00pm 2.5 -7.2 0.2 85 0.9 W 41 80 22 43 - - 5.6
27/10:42pm 2.2 -6.0 0.3 87 0.7 W 33 76 18 41 - - 5.2
27/10:30pm 2.3 -6.7 0.4 87 0.7 W 37 70 20 38 - - 5.0
27/10:00pm 2.3 -8.3 0.5 88 0.7 W 46 96 25 52 - - 4.6
27/09:30pm 2.6 -9.2 0.2 84 0.9 WSW 52 82 28 44 - - 4.0
27/09:00pm 2.8 -8.6 0.7 86 0.8 W 50 102 27 55 - - 3.6
27/08:53pm 2.6 -8.9 -0.2 82 1.1 WSW 50 102 27 55 - - 3.4
27/08:30pm 2.4 -7.8 0.9 90 0.6 WSW 44 76 24 41 - - 3.0
27/08:00pm 1.9 -9.3 1.8 99 0.0 WSW 50 80 27 43 - - 2.4
27/07:30pm 1.9 -10.4 1.9 100 0.0 WSW 56 85 30 46 - - 1.6
27/07:00pm 1.9 -11.0 1.9 100 0.0 WSW 59 82 32 44 - - 1.0
27/06:42pm 2.1 -10.2 2.1 100 0.0 WSW 56 95 30 51 - - 0.8
27/06:36pm 2.3 -8.4 2.3 100 0.0 W 48 95 26 51 - - 0.8
27/06:30pm 1.9 -7.6 1.9 100 0.0 W 41 76 22 41 - - 0.8
27/06:27pm 1.7 -8.2 1.7 100 0.0 W 43 93 23 50 - - 0.8
27/06:23pm 1.9 -7.6 1.9 100 0.0 W 41 93 22 50 - - 0.8
27/06:20pm 1.7 -8.4 1.7 100 0.0 W 44 93 24 50 - - 0.8
27/06:17pm 1.9 -7.6 1.9 100 0.0 W 41 76 22 41 - - 0.8
27/06:00pm 1.1 -9.5 1.1 100 0.0 W 46 104 25 56 - - 0.8
27/05:59pm 1.7 -8.4 1.7 100 0.0 W 44 104 24 56 - - 0.8
27/05:58pm 1.4 -8.5 1.4 100 0.0 W 43 80 23 43 - - 0.8
27/05:47pm 1.0 -7.5 1.0 100 0.0 W 35 70 19 38 - - 0.8
27/05:43pm 0.8 -9.2 0.8 100 0.0 W 43 72 23 39 - - 0.8
27/05:42pm 0.8 -9.2 0.8 100 0.0 W 43 72 23 39 - - 0.8
27/05:30pm 0.3 -9.0 0.3 100 0.0 WNW 39 72 21 39 - - 0.8
27/05:04pm 0.1 -10.6 0.1 100 0.0 WNW 46 89 25 48 - - 0.8
27/05:00pm 0.0 -10.7 0.0 100 0.0 WNW 46 69 25 37 - - 0.8
27/04:30pm -0.2 -10.6 -0.2 100 0.0 WNW 44 65 24 35 - - 0.8
27/04:00pm -0.2 -10.4 -0.2 100 0.0 WNW 43 69 23 37 - - 0.6
27/03:30pm -0.2 -12.5 -0.2 100 0.0 WNW 54 72 29 39 - - 0.6
27/03:00pm -0.2 -10.4 -0.2 100 0.0 WNW 43 70 23 38 - - 0.6
27/02:30pm -0.6 -10.5 -0.6 100 0.0 WNW 41 70 22 38 - - 0.4
27/02:00pm -0.3 -10.5 -0.3 100 0.0 WNW 43 69 23 37 - - 0.2
27/01:30pm -0.3 -9.7 -0.3 100 0.0 WNW 39 59 21 32 - - 0.0
27/01:00pm -0.3 -10.5 -0.3 100 0.0 W 43 67 23 36 - - 0.0
27/12:30pm -0.5 -10.0 -0.5 100 0.0 WNW 39 67 21 36 - - 0.0
27/12:02pm -0.3 -8.4 -0.3 100 0.0 WNW 32 50 17 27 - - 0.0
27/12:00pm -0.3 -8.6 -0.3 100 0.0 WNW 33 50 18 27 - - 0.0
27/11:30am -0.5 -10.0 -0.5 100 0.0 WNW 39 70 21 38 - - 0.0
27/11:22am -0.4 -8.7 -0.4 100 0.0 W 33 57 18 31 - - 0.0
27/11:20am -0.4 -8.5 -0.4 100 0.0 W 32 57 17 31 - - 0.0
27/11:17am -0.4 -7.4 -0.4 100 0.0 WSW 26 57 14 31 - - 0.0
27/11:00am -0.5 -5.8 -0.5 100 0.0 SSE 17 37 9 20 - - 0.0
27/10:30am -1.0 -5.2 -1.0 100 0.0 SE 11 41 6 22 - - 0.0
27/10:00am -1.3 -8.0 -1.3 100 0.0 ESE 24 43 13 23 - - 0.0
27/09:30am -1.3 -5.9 -1.3 100 0.0 SE 13 35 7 19 - - 0.0
27/09:20am -1.4 -8.9 -1.4 100 0.0 ESE 28 50 15 27 - - 0.0
27/09:00am -1.3 -6.7 -1.3 100 0.0 SE 17 39 9 21 - - 2.2
27/08:30am -1.3 -9.2 -1.3 100 0.0 NE 30 39 16 21 - - 2.2
27/08:04am -1.6 -9.1 -1.6 100 0.0 NE 28 52 15 28 - - 2.2
27/08:00am -1.5 -8.6 -1.5 100 0.0 NE 26 43 14 23 - - 2.2
27/07:30am -1.6 -8.0 -1.6 100 0.0 NE 22 32 12 17 - - 2.2
27/07:00am -1.7 -8.5 -1.7 100 0.0 NE 24 35 13 19 - - 2.2
27/06:48am -1.7 -9.6 -1.7 100 0.0 NNE 30 48 16 26 - - 2.2
27/06:30am -1.8 -10.7 -1.8 100 0.0 NNE 35 46 19 25 - - 2.2
27/06:00am -1.8 -10.7 -1.8 100 0.0 NE 35 46 19 25 - - 2.2
27/05:54am -1.8 -10.7 -1.8 100 0.0 E 35 50 19 27 - - 2.2
27/05:51am -1.9 -11.2 -1.9 100 0.0 ENE 37 50 20 27 - - 2.2
27/05:48am -1.9 -11.2 -1.9 100 0.0 NE 37 50 20 27 - - 2.2
27/05:30am -2.0 -11.7 -2.0 100 0.0 ENE 39 50 21 27 - - 2.2
27/05:22am -1.9 -12.3 -1.9 100 0.0 ESE 43 56 23 30 - - 2.2
27/05:00am -1.8 -11.8 -1.8 100 0.0 S 41 52 22 28 - - 2.2
27/04:57am -1.8 -11.8 -1.8 100 0.0 SW 41 57 22 31 - - 2.2
27/04:42am -1.5 -11.5 -1.5 100 0.0 WSW 41 59 22 32 - - 2.2
27/04:30am -1.6 -10.8 -1.6 100 0.0 WSW 37 52 20 28 - - 2.2
27/04:01am -1.4 -9.7 -1.4 100 0.0 WSW 32 52 17 28 - - 2.2
27/04:00am -1.4 -9.7 -1.4 100 0.0 WSW 32 46 17 25 - - 2.2
27/03:32am -1.1 -10.3 -1.1 100 0.0 SW 37 56 20 30 - - 2.2
27/03:30am -1.1 -10.3 -1.1 100 0.0 SW 37 54 20 29 - - 2.2
27/03:00am -0.9 -7.2 -0.9 100 0.0 WSW 22 39 12 21 - - 2.2
27/02:33am -0.7 -9.8 -0.7 100 0.0 SW 37 56 20 30 - - 2.2
27/02:30am -0.7 -10.2 -0.7 100 0.0 SW 39 56 21 30 - - 2.2
27/02:21am -0.6 -8.4 -0.6 100 0.0 WSW 30 48 16 26 - - 2.2
27/02:00am -0.3 -8.0 -0.3 100 0.0 WSW 30 41 16 22 - - 2.2
27/01:40am -0.2 -7.5 -0.2 100 0.0 W 28 46 15 25 - - 2.2
27/01:30am -0.2 -7.9 -0.2 100 0.0 W 30 43 16 23 - - 2.2
27/01:00am -0.1 -8.7 -0.1 100 0.0 WNW 35 54 19 29 - - 2.2
27/12:41am -0.1 -8.7 -0.1 100 0.0 WNW 35 59 19 32 - - 2.2
27/12:30am -0.1 -8.7 -0.1 100 0.0 WNW 35 52 19 28 - - 2.2
27/12:00am 0.0 -8.1 0.0 100 0.0 WNW 32 65 17 35 - - 2.2
 
Date/Time
EST
Temp
°C
App
Temp
°C
Dew
Point
°C
Rel
Hum
%
Delta-T
°C
Wind Press
QNH
hPa
Press
MSL
hPa
Rain since
9am
mm
Dir  Spd
km/h
Gust
km/h
Spd
kts
Gust
kts
26/11:37pm -0.1 -8.2 -0.1 100 0.0 WNW 32 50 17 27 - - 2.2
26/11:30pm 0.0 -9.0 0.0 100 0.0 WNW 37 52 20 28 - - 2.2
26/11:00pm -0.1 -7.8 -0.1 100 0.0 NW 30 48 16 26 - - 2.2
26/10:35pm -0.1 -8.7 -0.1 100 0.0 WNW 35 54 19 29 - - 2.2
26/10:30pm -0.2 -9.6 -0.2 100 0.0 WNW 39 54 21 29 - - 2.2
26/10:00pm -0.4 -7.8 -0.4 100 0.0 WNW 28 46 15 25 - - 2.2
26/09:59pm -0.4 -7.8 -0.4 100 0.0 WNW 28 46 15 25 - - 2.2
26/09:30pm -0.6 -6.8 -0.6 100 0.0 NW 22 35 12 19 - - 2.2
26/09:00pm -0.7 -7.3 -0.7 100 0.0 WNW 24 33 13 18 - - 2.2
26/08:30pm -0.8 -9.0 -0.8 100 0.0 WNW 32 44 17 24 - - 2.2
26/08:00pm -0.9 -8.3 -0.9 100 0.0 NW 28 39 15 21 - - 2.2
26/07:30pm -1.0 -8.1 -1.0 100 0.0 NW 26 37 14 20 - - 2.2
26/07:00pm -1.0 -8.8 -1.0 100 0.0 NW 30 41 16 22 - - 2.2
26/06:30pm -1.0 -6.7 -1.0 100 0.0 WNW 19 26 10 14 - - 2.2
26/06:00pm -1.0 -6.9 -1.0 100 0.0 WNW 20 28 11 15 - - 2.2
26/05:30pm -1.0 -8.1 -1.0 100 0.0 NW 26 41 14 22 - - 2.2
26/05:00pm -1.1 -7.0 -1.1 100 0.0 WNW 20 32 11 17 - - 2.0
26/04:30pm -1.1 -10.6 -1.1 100 0.0 W 39 57 21 31 - - 2.0
26/04:00pm -1.2 -9.4 -1.2 100 0.0 W 32 52 17 28 - - 2.0
26/03:30pm -0.9 -11.2 -0.9 100 0.0 W 43 70 23 38 - - 2.0
26/03:00pm -0.8 -10.3 -0.8 100 0.0 WNW 39 67 21 36 - - 1.8
26/02:56pm -0.7 -10.2 -0.7 100 0.0 WNW 39 67 21 36 - - 1.8
26/02:53pm -0.8 -11.6 -0.8 100 0.0 WNW 46 76 25 41 - - 1.8
26/02:45pm -0.9 -11.2 -0.9 100 0.0 W 43 76 23 41 - - 1.8
26/02:41pm -0.8 -9.5 -0.8 100 0.0 W 35 70 19 38 - - 1.8
26/02:33pm -1.0 -9.2 -1.0 100 0.0 WNW 32 52 17 28 - - 1.6
26/02:30pm -0.9 -10.0 -0.9 100 0.0 WNW 37 59 20 32 - - 1.6
26/02:28pm -1.0 -10.9 -1.0 100 0.0 WNW 41 67 22 36 - - 1.6
26/02:00pm -0.7 -9.1 -0.7 100 0.0 W 33 57 18 31 - - 1.4
26/01:30pm -0.3 -8.6 -0.3 100 0.0 WNW 33 76 18 41 - - 0.6
26/01:00pm -0.3 -8.6 -0.3 100 0.0 W 33 57 18 31 - - 0.0
26/12:30pm -0.3 -9.0 -0.3 100 0.0 WNW 35 54 19 29 - - 0.0
26/12:00pm -0.3 -8.0 -0.3 100 0.0 WNW 30 48 16 26 - - 0.0
26/11:30am -0.6 -9.3 -0.6 100 0.0 WNW 35 69 19 37 - - 0.0
26/11:00am -0.5 -10.7 -0.5 100 0.0 WNW 43 65 23 35 - - 0.0
26/10:30am -0.8 -9.0 -0.8 100 0.0 W 32 59 17 32 - - 0.0
26/10:27am -0.8 -9.0 -0.8 100 0.0 W 32 56 17 30 - - 0.0
26/10:25am -0.8 -9.2 -0.8 100 0.0 W 33 56 18 30 - - 0.0
26/10:00am -0.6 -10.9 -0.7 99 0.0 WNW 43 69 23 37 - - 0.0
26/09:35am -0.9 -10.1 -1.0 99 0.0 WNW 37 65 20 35 - - 0.0
26/09:30am -0.9 -10.1 -1.0 99 0.0 WNW 37 54 20 29 - - 0.0
26/09:00am -1.3 -10.9 -1.4 99 0.0 WNW 39 65 21 35 - - 3.2
26/08:30am -1.4 -11.4 -1.5 99 0.0 WNW 41 65 22 35 - - 3.2
26/08:00am -1.4 -12.0 -1.5 99 0.0 WNW 44 87 24 47 - - 3.2
26/07:55am -1.4 -9.9 -1.5 99 0.0 W 33 83 18 45 - - 3.2
26/07:37am -1.5 -9.4 -1.6 99 0.0 W 30 65 16 35 - - 3.2
26/07:36am -1.5 -9.0 -1.6 99 0.0 W 28 50 15 27 - - 3.2
26/07:30am -1.6 -11.6 -1.7 99 0.0 WNW 41 76 22 41 - - 3.2
26/07:21am -1.5 -10.4 -1.6 99 0.0 WNW 35 69 19 37 - - 3.2
26/07:00am -1.4 -8.9 -1.5 99 0.0 W 28 50 15 27 - - 3.2
26/06:30am -1.5 -10.4 -1.6 99 0.0 WNW 35 56 19 30 - - 3.2
26/06:00am -1.5 -11.1 -1.6 99 0.0 WNW 39 74 21 40 - - 3.2
26/05:30am -1.6 -13.3 -1.7 99 0.0 W 50 83 27 45 - - 3.2
26/05:29am -1.6 -12.6 -1.7 99 0.0 W 46 83 25 45 - - 3.2
26/05:24am -1.7 -11.7 -1.8 99 0.0 W 41 80 22 43 - - 3.2
26/05:00am -1.6 -10.5 -1.6 100 0.0 W 35 70 19 38 - - 3.2
26/04:30am -1.8 -12.8 -1.9 99 0.0 WNW 46 76 25 41 - - 3.2
26/04:20am -1.8 -12.4 -1.8 100 0.0 WNW 44 95 24 51 - - 3.2
26/04:11am -1.6 -10.5 -1.6 100 0.0 WNW 35 72 19 39 - - 3.2
26/04:09am -1.6 -10.8 -1.6 100 0.0 WNW 37 72 20 39 - - 3.2
26/04:03am -1.6 -12.0 -1.6 100 0.0 W 43 80 23 43 - - 3.2
26/04:00am -1.5 -11.5 -1.5 100 0.0 W 41 80 22 43 - - 3.2
26/03:53am -1.6 -10.5 -1.6 100 0.0 W 35 72 19 39 - - 3.2
26/03:30am -1.3 -9.5 -1.3 100 0.0 W 32 67 17 36 - - 3.2
26/03:29am -1.3 -9.5 -1.3 100 0.0 W 32 65 17 35 - - 3.2
26/03:28am -1.3 -9.5 -1.3 100 0.0 W 32 70 17 38 - - 3.2
26/03:22am -1.4 -10.2 -1.4 100 0.0 W 35 72 19 39 - - 3.2
26/03:00am -1.4 -11.4 -1.4 100 0.0 WNW 41 70 22 38 - - 3.2
26/02:30am -1.1 -8.6 -1.1 100 0.0 WNW 28 65 15 35 - - 3.2
26/02:00am -1.0 -10.2 -1.0 100 0.0 WNW 37 61 20 33 - - 3.2
26/01:30am -1.0 -10.5 -1.0 100 0.0 WNW 39 63 21 34 - - 3.2
26/01:00am -0.8 -9.2 -0.8 100 0.0 WNW 33 59 18 32 - - 3.2
26/12:54am -0.9 -8.3 -0.9 100 0.0 WNW 28 46 15 25 - - 3.2
26/12:30am -0.8 -8.2 -0.8 100 0.0 WNW 28 43 15 23 - - 3.2
26/12:00am -0.8 -9.9 -0.8 100 0.0 WNW 37 57 20 31 - - 3.2
 
Date/Time
EST
Temp
°C
App
Temp
°C
Dew
Point
°C
Rel
Hum
%
Delta-T
°C
Wind Press
QNH
hPa
Press
MSL
hPa
Rain since
9am
mm
Dir  Spd
km/h
Gust
km/h
Spd
kts
Gust
kts
25/11:30pm -0.8 -9.2 -0.8 100 0.0 WNW 33 57 18 31 - - 3.2
25/11:07pm -0.8 -11.1 -0.8 100 0.0 WNW 43 78 23 42 - - 3.2
25/11:00pm -0.7 -8.9 -0.7 100 0.0 WNW 32 56 17 30 - - 3.2
25/10:30pm -0.7 -9.8 -0.7 100 0.0 WNW 37 78 20 42 - - 3.2
25/10:15pm -0.5 -10.9 -0.5 100 0.0 WNW 44 87 24 47 - - 3.2

Other Formats:

Comma delimited format used in spreadsheet applications
http://www.bom.gov.au/fwo/IDT60801/IDT60801.94977.axf

JavaScript Object Notation format (JSON) in row-major order
http://www.bom.gov.au/fwo/IDT60801/IDT60801.94977.json